Time;durP1;ratioP1;P1;durP2;ratioP2;P2;SDS_P1;SDS_P2;PMS_P1;PMS_P2;Temp;Humidity;BMP_temperature;BMP_pressure;BME280_temperature;BME280_humidity;BME280_pressure;Samples;Min_cycle;Max_cycle;Signal;HPM_P1;HPM_P2
2022/10/14 00:00:24;;;;;;;0.50;0.50;;;;;;;;;;5114391;28;20197;-82
2022/10/14 00:02:53;;;;;;;1.00;1.00;;;;;;;;;;5113996;28;20284;-82
2022/10/14 00:05:21;;;;;;;1.67;1.57;;;;;;;;;;5115369;28;20208;-82
2022/10/14 00:07:49;;;;;;;127.43;13.50;;;;;;;;;;5114409;28;20230;-82
2022/10/14 00:10:18;;;;;;;5.60;5.10;;;;;;;;;;5114504;28;20237;-82
2022/10/14 00:12:46;;;;;;;5.40;4.93;;;;;;;;;;5112236;28;20208;-82
2022/10/14 00:15:15;;;;;;;9.17;3.00;;;;;;;;;;5114275;28;20193;-82
2022/10/14 00:17:47;;;;;;;74.33;10.23;;;;;;;;;;5114013;28;20237;-82
2022/10/14 00:20:16;;;;;;;11.67;3.67;;;;;;;;;;5115348;28;20250;-82
2022/10/14 00:22:44;;;;;;;100.70;15.97;;;;;;;;;;5115037;28;20224;-82
2022/10/14 00:25:13;;;;;;;181.10;24.10;;;;;;;;;;5113942;28;20215;-82
2022/10/14 00:27:41;;;;;;;200.77;21.03;;;;;;;;;;5111473;28;20201;-82
2022/10/14 00:30:10;;;;;;;31.57;7.63;;;;;;;;;;5113551;28;20290;-83
2022/10/14 00:32:38;;;;;;;1.93;1.87;;;;;;;;;;5114054;28;20202;-82
2022/10/14 00:35:08;;;;;;;9.97;5.27;;;;;;;;;;5114764;28;20198;-82
2022/10/14 00:37:37;;;;;;;2.97;2.77;;;;;;;;;;5113272;28;20218;-83
2022/10/14 00:40:06;;;;;;;8.93;3.07;;;;;;;;;;5113628;28;20203;-82
2022/10/14 00:42:35;;;;;;;2.23;2.13;;;;;;;;;;5100865;28;20231;-82
2022/10/14 00:45:06;;;;;;;4.40;4.00;;;;;;;;;;5114706;28;20293;-82
2022/10/14 00:47:35;;;;;;;0.80;0.80;;;;;;;;;;5113549;28;20213;-82
2022/10/14 00:50:03;;;;;;;16.23;4.30;;;;;;;;;;5113180;28;20230;-82
2022/10/14 00:52:33;;;;;;;12.77;4.07;;;;;;;;;;5113703;28;20220;-82
2022/10/14 00:55:02;;;;;;;1.00;0.87;;;;;;;;;;5112907;28;20201;-82
2022/10/14 00:57:31;;;;;;;3.00;2.67;;;;;;;;;;5104848;28;20209;-82
2022/10/14 01:00:03;;;;;;;0.60;0.60;;;;;;;;;;5110436;28;20265;-82
2022/10/14 01:02:31;;;;;;;12.30;4.33;;;;;;;;;;5113294;28;20198;-82
2022/10/14 01:05:00;;;;;;;1.20;1.20;;;;;;;;;;5112382;28;20240;-82
2022/10/14 01:07:34;;;;;;;1.87;1.77;;;;;;;;;;5113766;28;20198;-82
2022/10/14 01:10:08;;;;;;;5.30;2.50;;;;;;;;;;5112943;28;20205;-82
2022/10/14 01:12:43;;;;;;;102.40;12.93;;;;;;;;;;5114278;28;20235;-83
2022/10/14 01:15:16;;;;;;;173.30;18.90;;;;;;;;;;5112555;28;20227;-82
2022/10/14 01:17:50;;;;;;;71.43;15.97;;;;;;;;;;5113474;28;20247;-82
2022/10/14 01:20:31;;;;;;;30.30;3.90;;;;;;;;;;5101994;28;20222;-82
2022/10/14 01:23:08;;;;;;;1.50;1.40;;;;;;;;;;5113381;28;20229;-83
2022/10/14 01:25:46;;;;;;;166.63;19.83;;;;;;;;;;5101344;28;20236;-83
2022/10/14 01:28:24;;;;;;;143.63;26.27;;;;;;;;;;5113038;28;20228;-83
2022/10/14 01:30:58;;;;;;;118.63;26.73;;;;;;;;;;5113275;28;20258;-82
2022/10/14 01:33:28;;;;;;;22.27;7.83;;;;;;;;;;5113752;28;20226;-83
2022/10/14 01:36:00;;;;;;;0.90;0.90;;;;;;;;;;5113937;28;20229;-83
2022/10/14 01:38:31;;;;;;;16.10;8.73;;;;;;;;;;5106212;28;20299;-83
2022/10/14 01:41:03;;;;;;;17.37;11.13;;;;;;;;;;5112487;28;20233;-83
2022/10/14 01:43:32;;;;;;;0.73;0.73;;;;;;;;;;5112531;28;20229;-83
2022/10/14 01:46:04;;;;;;;68.23;30.03;;;;;;;;;;5113022;28;20214;-83
2022/10/14 01:48:35;;;;;;;26.07;13.00;;;;;;;;;;5112351;28;20227;-83
2022/10/14 01:51:06;;;;;;;18.40;13.33;;;;;;;;;;5112789;28;20210;-83
2022/10/14 01:53:37;;;;;;;22.87;14.60;;;;;;;;;;5112363;28;20233;-83
2022/10/14 01:56:06;;;;;;;4.87;3.47;;;;;;;;;;5112691;28;20200;-83
2022/10/14 01:58:36;;;;;;;3.83;2.60;;;;;;;;;;5113080;28;20195;-83
2022/10/14 02:01:06;;;;;;;2.10;2.00;;;;;;;;;;5112691;28;20202;-83
2022/10/14 02:03:42;;;;;;;6.67;6.00;;;;;;;;;;5112299;28;20288;-83
2022/10/14 02:06:12;;;;;;;23.70;15.63;;;;;;;;;;5112207;28;20274;-83
2022/10/14 02:08:45;;;;;;;32.07;19.13;;;;;;;;;;5112543;28;20208;-83
2022/10/14 02:11:15;;;;;;;27.37;16.97;;;;;;;;;;5112148;28;20236;-83
2022/10/14 02:13:50;;;;;;;20.90;13.07;;;;;;;;;;5102962;28;20230;-83
2022/10/14 02:16:24;;;;;;;24.90;15.57;;;;;;;;;;5110559;28;20249;-83
2022/10/14 02:18:57;;;;;;;2.87;1.87;;;;;;;;;;5112564;28;20201;-83
2022/10/14 02:21:28;;;;;;;0.93;0.93;;;;;;;;;;5115713;28;20218;-83
2022/10/14 02:23:59;;;;;;;1.63;1.53;;;;;;;;;;5116220;28;20206;-83
2022/10/14 02:26:27;;;;;;;0.87;0.87;;;;;;;;;;5104035;28;20210;-83
2022/10/14 02:28:57;;;;;;;6.10;5.20;;;;;;;;;;5117324;28;20244;-83
2022/10/14 02:31:29;;;;;;;1.07;1.07;;;;;;;;;;5116402;28;20213;-83
2022/10/14 02:33:59;;;;;;;0.50;0.50;;;;;;;;;;5104327;28;20287;-82
2022/10/14 02:36:28;;;;;;;8.73;5.23;;;;;;;;;;5115891;28;20223;-83
2022/10/14 02:38:58;;;;;;;213.10;37.97;;;;;;;;;;5102444;28;20240;-83
2022/10/14 02:41:29;;;;;;;382.17;53.97;;;;;;;;;;5115882;28;20201;-83
2022/10/14 02:43:57;;;;;;;272.37;37.93;;;;;;;;;;5102752;28;20196;-83
2022/10/14 02:46:27;;;;;;;382.33;53.43;;;;;;;;;;5115929;28;20222;-83
2022/10/14 02:48:56;;;;;;;11.97;2.73;;;;;;;;;;5115821;28;20225;-83
2022/10/14 02:51:24;;;;;;;231.37;21.83;;;;;;;;;;5116727;28;20283;-83
2022/10/14 02:53:53;;;;;;;91.70;13.33;;;;;;;;;;5115999;28;20224;-82
2022/10/14 02:56:21;;;;;;;1.80;1.43;;;;;;;;;;5115493;28;20240;-83
2022/10/14 02:58:49;;;;;;;1.63;1.63;;;;;;;;;;5115767;28;20198;-82
2022/10/14 03:01:18;;;;;;;1.20;1.20;;;;;;;;;;5115470;28;20224;-83
2022/10/14 03:03:47;;;;;;;1.03;1.03;;;;;;;;;;5103219;28;20209;-82
2022/10/14 03:06:16;;;;;;;1.80;1.80;;;;;;;;;;5115265;28;20348;-82
2022/10/14 03:08:44;;;;;;;20.10;2.70;;;;;;;;;;5115542;28;20224;-82
2022/10/14 03:11:12;;;;;;;1.13;1.13;;;;;;;;;;5115290;28;20207;-83
2022/10/14 03:13:41;;;;;;;4.83;4.53;;;;;;;;;;5116498;28;20205;-82
2022/10/14 03:16:09;;;;;;;4.10;2.00;;;;;;;;;;5115428;28;20200;-83
2022/10/14 03:18:37;;;;;;;0.90;0.90;;;;;;;;;;5115309;28;20248;-82
2022/10/14 03:21:07;;;;;;;4.00;1.33;;;;;;;;;;5111566;28;20247;-82
2022/10/14 03:23:35;;;;;;;10.57;7.93;;;;;;;;;;5106039;28;20235;-82
2022/10/14 03:26:04;;;;;;;3.00;2.80;;;;;;;;;;5114542;28;20196;-82
2022/10/14 03:28:32;;;;;;;4.97;3.03;;;;;;;;;;5115032;28;20199;-82
2022/10/14 03:31:01;;;;;;;7.23;5.40;;;;;;;;;;5114703;28;20197;-83
2022/10/14 03:33:29;;;;;;;9.33;5.67;;;;;;;;;;5115092;28;20224;-83
2022/10/14 03:36:01;;;;;;;1.93;1.83;;;;;;;;;;5115833;28;20197;-83
2022/10/14 03:38:30;;;;;;;2.63;2.47;;;;;;;;;;5114635;28;20290;-83
2022/10/14 03:40:59;;;;;;;2.53;2.03;;;;;;;;;;5102515;28;20274;-83
2022/10/14 03:43:27;;;;;;;1.43;1.30;;;;;;;;;;5114683;28;20191;-83
2022/10/14 03:45:55;;;;;;;2.57;2.37;;;;;;;;;;5114845;28;20294;-83
2022/10/14 03:48:24;;;;;;;2.93;2.47;;;;;;;;;;5114632;28;20239;-83
2022/10/14 03:50:55;;;;;;;0.80;0.80;;;;;;;;;;5115590;28;20198;-83
2022/10/14 03:53:24;;;;;;;2.07;1.97;;;;;;;;;;5114590;28;20198;-83
2022/10/14 03:55:53;;;;;;;3.73;3.40;;;;;;;;;;5114409;28;20196;-83
2022/10/14 03:58:22;;;;;;;3.63;3.33;;;;;;;;;;5115787;28;20216;-83
2022/10/14 04:00:50;;;;;;;1.57;1.53;;;;;;;;;;5114346;28;20239;-82
2022/10/14 04:03:18;;;;;;;4.90;2.30;;;;;;;;;;5114887;28;20221;-83
2022/10/14 04:05:47;;;;;;;1.27;1.27;;;;;;;;;;5114593;28;20196;-83
2022/10/14 04:08:15;;;;;;;1.00;1.00;;;;;;;;;;5114214;28;20250;-83
2022/10/14 04:10:43;;;;;;;0.57;0.57;;;;;;;;;;5114502;28;20196;-83
2022/10/14 04:13:13;;;;;;;1.00;1.00;;;;;;;;;;5109140;28;20196;-82
2022/10/14 04:15:42;;;;;;;12.13;6.00;;;;;;;;;;5106569;28;20287;-83
2022/10/14 04:18:10;;;;;;;1.27;1.27;;;;;;;;;;5115124;28;20228;-83
2022/10/14 04:20:39;;;;;;;13.67;8.03;;;;;;;;;;5114250;28;20248;-83
2022/10/14 04:23:07;;;;;;;1.53;1.53;;;;;;;;;;5100981;28;20200;-83
2022/10/14 04:25:37;;;;;;;9.33;6.10;;;;;;;;;;5114016;28;20200;-82
2022/10/14 04:28:06;;;;;;;4.07;3.80;;;;;;;;;;5113809;28;20224;-83
2022/10/14 04:30:35;;;;;;;4.27;3.80;;;;;;;;;;5114401;28;20196;-82
2022/10/14 04:33:04;;;;;;;2.13;1.67;;;;;;;;;;5113707;28;20195;-83
2022/10/14 04:35:32;;;;;;;3.10;1.43;;;;;;;;;;5113975;28;20196;-83
2022/10/14 04:38:01;;;;;;;3.90;2.63;;;;;;;;;;5114828;28;20261;-83
2022/10/14 04:40:30;;;;;;;2.30;2.20;;;;;;;;;;5114658;28;20200;-83
2022/10/14 04:42:59;;;;;;;17.17;7.80;;;;;;;;;;5112966;28;20189;-83
2022/10/14 04:45:27;;;;;;;21.53;12.23;;;;;;;;;;5113558;28;20199;-83
2022/10/14 04:47:57;;;;;;;14.20;9.93;;;;;;;;;;5114480;28;20267;-83
2022/10/14 04:50:25;;;;;;;18.20;11.60;;;;;;;;;;5113512;28;20224;-83
2022/10/14 04:52:53;;;;;;;10.50;7.13;;;;;;;;;;5113481;28;20220;-83
2022/10/14 04:55:22;;;;;;;8.50;6.13;;;;;;;;;;5114336;28;20206;-83
2022/10/14 04:57:50;;;;;;;9.37;6.63;;;;;;;;;;5113658;28;20180;-83
2022/10/14 05:00:19;;;;;;;7.70;6.97;;;;;;;;;;5113377;28;20200;-82
2022/10/14 05:02:47;;;;;;;4.80;4.47;;;;;;;;;;5101121;28;20251;-83
2022/10/14 05:05:17;;;;;;;29.10;14.37;;;;;;;;;;5114287;28;20200;-83
2022/10/14 05:07:45;;;;;;;5.63;4.53;;;;;;;;;;5112973;28;20303;-83
2022/10/14 05:10:14;;;;;;;12.60;10.67;;;;;;;;;;5113284;28;20215;-83
2022/10/14 05:12:42;;;;;;;13.73;7.73;;;;;;;;;;5113886;28;20200;-82
2022/10/14 05:15:11;;;;;;;4.57;3.27;;;;;;;;;;5114128;28;20211;-83
2022/10/14 05:17:43;;;;;;;12.97;11.07;;;;;;;;;;5112869;28;20203;-83
2022/10/14 05:20:12;;;;;;;3.83;3.47;;;;;;;;;;5112814;28;20216;-82
2022/10/14 05:22:41;;;;;;;7.17;6.23;;;;;;;;;;5112863;28;20239;-83
2022/10/14 05:25:10;;;;;;;19.13;8.37;;;;;;;;;;5112814;28;20299;-82
2022/10/14 05:27:38;;;;;;;13.57;9.33;;;;;;;;;;5112471;28;20212;-83
2022/10/14 05:30:07;;;;;;;9.43;6.73;;;;;;;;;;5112706;28;20201;-82
2022/10/14 05:32:35;;;;;;;8.17;7.47;;;;;;;;;;5113288;28;20234;-83
2022/10/14 05:35:04;;;;;;;21.37;12.63;;;;;;;;;;5112786;28;20249;-83
2022/10/14 05:37:32;;;;;;;10.07;9.00;;;;;;;;;;5099779;28;20180;-82
2022/10/14 05:40:02;;;;;;;13.23;9.57;;;;;;;;;;5112646;28;20240;-83
2022/10/14 05:42:30;;;;;;;9.67;5.53;;;;;;;;;;5112667;28;20203;-83
2022/10/14 05:44:59;;;;;;;5.90;4.43;;;;;;;;;;5113754;28;20219;-82
2022/10/14 05:47:27;;;;;;;3.53;2.10;;;;;;;;;;5114301;28;20286;-82
2022/10/14 05:49:56;;;;;;;5.63;3.97;;;;;;;;;;5112441;28;20249;-83
2022/10/14 05:52:24;;;;;;;9.80;6.33;;;;;;;;;;5112940;28;20283;-82
2022/10/14 05:54:53;;;;;;;0.70;0.70;;;;;;;;;;5116319;28;20231;-82
2022/10/14 05:57:22;;;;;;;4.80;4.33;;;;;;;;;;5116655;28;20192;-82
2022/10/14 05:59:51;;;;;;;20.40;10.40;;;;;;;;;;5116831;28;20236;-82
2022/10/14 06:02:19;;;;;;;10.87;6.83;;;;;;;;;;5116750;28;20272;-83
2022/10/14 06:04:48;;;;;;;7.93;6.13;;;;;;;;;;5116127;28;20291;-82
2022/10/14 06:07:16;;;;;;;7.17;5.53;;;;;;;;;;5116951;28;20228;-82
2022/10/14 06:09:45;;;;;;;16.77;10.80;;;;;;;;;;5117404;28;20239;-85
2022/10/14 06:12:13;;;;;;;9.27;6.50;;;;;;;;;;5116590;28;20192;-85
2022/10/14 06:14:43;;;;;;;12.43;7.87;;;;;;;;;;5103181;28;20218;-85
2022/10/14 06:17:11;;;;;;;6.67;5.43;;;;;;;;;;5116741;28;20296;-85
2022/10/14 06:19:39;;;;;;;6.20;5.57;;;;;;;;;;5117268;28;20208;-85
2022/10/14 06:22:08;;;;;;;15.10;8.73;;;;;;;;;;5116198;28;20204;-85
2022/10/14 06:24:36;;;;;;;5.67;5.13;;;;;;;;;;5116226;28;20208;-85
2022/10/14 06:27:05;;;;;;;6.20;5.30;;;;;;;;;;5116222;28;20220;-85
2022/10/14 06:29:36;;;;;;;6.13;5.47;;;;;;;;;;5117352;28;20218;-85
2022/10/14 06:32:07;;;;;;;15.97;7.67;;;;;;;;;;5115895;28;20202;-85
2022/10/14 06:34:35;;;;;;;19.80;10.83;;;;;;;;;;5116404;28;20264;-85
2022/10/14 06:37:04;;;;;;;7.27;5.03;;;;;;;;;;5115748;28;20200;-85
2022/10/14 06:39:32;;;;;;;9.87;6.63;;;;;;;;;;5115676;28;20212;-85
2022/10/14 06:42:02;;;;;;;6.10;4.57;;;;;;;;;;5117186;28;20196;-85
2022/10/14 06:44:31;;;;;;;10.07;7.80;;;;;;;;;;5115842;28;20199;-86
2022/10/14 06:47:00;;;;;;;4.13;3.47;;;;;;;;;;5116150;28;20204;-85
2022/10/14 06:49:29;;;;;;;2.20;2.10;;;;;;;;;;5115430;28;20208;-85
2022/10/14 06:51:58;;;;;;;0.87;0.87;;;;;;;;;;5116814;28;20200;-86
2022/10/14 06:54:26;;;;;;;6.90;5.00;;;;;;;;;;5115818;28;20196;-85
2022/10/14 06:56:58;;;;;;;7.10;6.03;;;;;;;;;;5113144;27;20200;-86
2022/10/14 06:59:28;;;;;;;4.13;3.73;;;;;;;;;;5110574;28;20215;-86
2022/10/14 07:01:57;;;;;;;6.50;3.97;;;;;;;;;;5111866;28;20204;-85
2022/10/14 07:04:26;;;;;;;0.60;0.60;;;;;;;;;;5111868;28;20208;-86
2022/10/14 07:06:57;;;;;;;10.77;7.33;;;;;;;;;;5102013;28;20197;-86
2022/10/14 07:09:26;;;;;;;16.10;9.33;;;;;;;;;;5096514;28;20224;-86
2022/10/14 07:11:54;;;;;;;6.13;4.13;;;;;;;;;;5109018;28;20246;-86
2022/10/14 07:14:23;;;;;;;1.83;1.57;;;;;;;;;;5111785;28;20196;-86
2022/10/14 07:16:52;;;;;;;0.53;0.53;;;;;;;;;;5114928;28;20207;-85
2022/10/14 07:19:20;;;;;;;2.30;2.10;;;;;;;;;;5108585;28;20218;-86
2022/10/14 07:21:49;;;;;;;2.07;1.97;;;;;;;;;;5114863;28;20218;-86
2022/10/14 07:24:19;;;;;;;2.70;2.50;;;;;;;;;;5114853;28;20196;-85
2022/10/14 07:26:47;;;;;;;4.70;4.50;;;;;;;;;;5104050;28;20208;-86
2022/10/14 07:29:16;;;;;;;5.10;4.37;;;;;;;;;;5112558;28;20292;-85
2022/10/14 07:31:44;;;;;;;0.83;0.83;;;;;;;;;;5114630;28;20290;-85
2022/10/14 07:34:13;;;;;;;1.33;1.30;;;;;;;;;;5113236;28;20201;-86
2022/10/14 07:36:41;;;;;;;0.97;0.97;;;;;;;;;;5114663;28;20193;-85
2022/10/14 07:39:13;;;;;;;1.07;0.97;;;;;;;;;;5109101;28;20236;-86
2022/10/14 07:41:43;;;;;;;3.60;2.60;;;;;;;;;;5111237;28;20204;-85
2022/10/14 07:44:13;;;;;;;1.43;1.33;;;;;;;;;;5100618;28;20197;-85
2022/10/14 07:46:43;;;;;;;9.33;5.00;;;;;;;;;;5107620;28;20200;-86
2022/10/14 07:49:13;;;;;;;4.70;3.97;;;;;;;;;;5110801;28;20208;-86
2022/10/14 07:51:42;;;;;;;4.50;4.10;;;;;;;;;;5113684;28;20192;-86
2022/10/14 07:54:13;;;;;;;1.40;1.00;;;;;;;;;;5109725;28;20216;-85
2022/10/14 07:56:43;;;;;;;4.17;3.50;;;;;;;;;;5106094;28;20203;-86
2022/10/14 07:59:12;;;;;;;8.60;4.40;;;;;;;;;;5128263;27;20196;-85
2022/10/14 08:01:46;;;;;;;4.47;3.93;;;;;;;;;;5111703;28;20245;-85
2022/10/14 08:04:15;;;;;;;0.40;0.40;;;;;;;;;;5108223;28;20304;-85
2022/10/14 08:06:44;;;;;;;1.00;1.00;;;;;;;;;;5114682;28;20192;-85
2022/10/14 08:09:13;;;;;;;2.93;2.77;;;;;;;;;;5106561;28;20213;-86
2022/10/14 08:11:43;;;;;;;1.03;0.83;;;;;;;;;;5109963;28;20220;-85
2022/10/14 08:14:12;;;;;;;1.37;1.27;;;;;;;;;;5111606;28;20227;-84
2022/10/14 08:16:41;;;;;;;1.30;1.23;;;;;;;;;;5107535;28;20228;-85
2022/10/14 08:19:11;;;;;;;1.43;1.43;;;;;;;;;;5112918;28;20196;-85
2022/10/14 08:21:43;;;;;;;0.73;0.73;;;;;;;;;;5113637;28;20255;-84
2022/10/14 08:24:12;;;;;;;0.40;0.40;;;;;;;;;;5114416;28;20216;-84
2022/10/14 08:26:41;;;;;;;2.77;2.50;;;;;;;;;;5114681;28;20204;-85
2022/10/14 08:29:12;;;;;;;1.60;1.50;;;;;;;;;;5112870;28;20239;-84
2022/10/14 08:31:40;;;;;;;1.43;1.23;;;;;;;;;;5111271;28;20208;-85
2022/10/14 08:34:10;;;;;;;8.50;5.67;;;;;;;;;;5114866;28;20193;-84
2022/10/14 08:36:38;;;;;;;7.33;3.67;;;;;;;;;;5104059;28;20259;-84
2022/10/14 08:39:07;;;;;;;2.47;2.13;;;;;;;;;;5111893;28;20220;-85
2022/10/14 08:41:55;;;;;;;1.20;1.00;;;;;;;;;;5101682;28;20203;-84
2022/10/14 08:44:29;;;;;;;1.30;1.30;;;;;;;;;;5109381;28;20232;-86
2022/10/14 08:46:59;;;;;;;2.60;2.40;;;;;;;;;;5110622;28;20208;-84
2022/10/14 08:49:31;;;;;;;3.67;3.43;;;;;;;;;;5101290;28;20248;-85
2022/10/14 08:52:01;;;;;;;0.90;0.90;;;;;;;;;;5107619;28;20212;-84
2022/10/14 08:54:37;;;;;;;6.23;3.30;;;;;;;;;;5105823;28;20273;-85
2022/10/14 08:57:06;;;;;;;0.83;0.83;;;;;;;;;;5101531;28;20208;-82
2022/10/14 08:59:39;;;;;;;0.40;0.40;;;;;;;;;;5109214;28;20188;-84
2022/10/14 09:02:16;;;;;;;1.80;1.70;;;;;;;;;;5102074;28;20200;-86
2022/10/14 09:04:45;;;;;;;1.53;0.97;;;;;;;;;;5106800;28;20199;-85
2022/10/14 09:07:17;;;;;;;5.27;4.83;;;;;;;;;;5096835;28;20205;-86
2022/10/14 09:09:49;;;;;;;3.43;3.13;;;;;;;;;;5101409;28;20281;-84
2022/10/14 09:12:19;;;;;;;0.53;0.53;;;;;;;;;;5104111;28;20208;-84
2022/10/14 09:14:55;;;;;;;1.90;1.80;;;;;;;;;;5105218;28;20216;-85
2022/10/14 09:17:28;;;;;;;2.13;2.03;;;;;;;;;;5102604;28;20200;-85
2022/10/14 09:20:04;;;;;;;2.20;2.03;;;;;;;;;;5104057;28;20244;-82
2022/10/14 09:22:33;;;;;;;0.40;0.40;;;;;;;;;;5105043;28;20224;-84
2022/10/14 09:25:01;;;;;;;0.43;0.43;;;;;;;;;;5102315;28;20201;-84
2022/10/14 09:27:30;;;;;;;3.10;2.97;;;;;;;;;;5107584;28;20285;-84
2022/10/14 09:30:03;;;;;;;3.10;2.40;;;;;;;;;;5107236;28;20208;-84
2022/10/14 09:32:34;;;;;;;3.03;2.13;;;;;;;;;;5109369;28;20198;-86
2022/10/14 09:35:15;;;;;;;2.20;2.10;;;;;;;;;;5107655;28;20205;-86
2022/10/14 09:37:45;;;;;;;3.80;2.50;;;;;;;;;;5102261;28;20266;-85
2022/10/14 09:40:19;;;;;;;6.57;5.10;;;;;;;;;;5100598;28;20231;-85
2022/10/14 09:42:57;;;;;;;13.17;9.53;;;;;;;;;;5106198;28;20201;-85
2022/10/14 09:45:47;;;;;;;1.00;1.00;;;;;;;;;;5104759;28;20292;-85
2022/10/14 09:48:19;;;;;;;13.27;2.00;;;;;;;;;;5104672;28;20289;-84
2022/10/14 09:50:51;;;;;;;2.73;2.53;;;;;;;;;;5103880;28;20219;-82
2022/10/14 09:53:26;;;;;;;4.83;3.03;;;;;;;;;;5122712;28;20210;-85
2022/10/14 09:56:01;;;;;;;7.83;5.77;;;;;;;;;;5103367;28;20242;-86
2022/10/14 09:58:32;;;;;;;8.00;2.97;;;;;;;;;;5106997;28;20197;-86
2022/10/14 10:01:02;;;;;;;8.50;5.70;;;;;;;;;;5104491;28;20212;-88
2022/10/14 10:03:32;;;;;;;14.37;8.10;;;;;;;;;;5107215;28;20220;-87
2022/10/14 10:06:03;;;;;;;21.23;12.30;;;;;;;;;;5104554;28;20215;-86
2022/10/14 10:08:32;;;;;;;17.73;10.33;;;;;;;;;;5107925;28;20213;-86
2022/10/14 10:11:02;;;;;;;9.90;6.80;;;;;;;;;;5105405;28;20220;-87
2022/10/14 10:13:38;;;;;;;11.20;7.47;;;;;;;;;;5107195;28;20230;-86
2022/10/14 10:16:18;;;;;;;22.07;12.67;;;;;;;;;;5102321;28;20210;-87
2022/10/14 10:18:47;;;;;;;24.60;14.07;;;;;;;;;;5098677;28;20200;-85
2022/10/14 10:21:37;;;;;;;22.43;12.00;;;;;;;;;;5100571;28;20218;-88
2022/10/14 10:24:20;;;;;;;18.57;11.40;;;;;;;;;;5103542;28;20295;-83
2022/10/14 10:26:56;;;;;;;14.30;8.47;;;;;;;;;;5099793;28;20210;-84
2022/10/14 10:29:34;;;;;;;15.03;8.90;;;;;;;;;;5100975;28;20259;-89
2022/10/14 10:32:17;;;;;;;22.30;11.73;;;;;;;;;;5105020;28;20221;-89
2022/10/14 10:35:02;;;;;;;17.20;8.90;;;;;;;;;;5101788;28;20202;-91
2022/10/14 10:37:32;;;;;;;14.00;8.07;;;;;;;;;;5101064;28;20316;-88
2022/10/14 10:40:23;;;;;;;17.13;9.03;;;;;;;;;;5098296;28;20233;-91
2022/10/14 10:42:56;;;;;;;16.73;10.90;;;;;;;;;;5105901;28;20239;-86
2022/10/14 10:45:30;;;;;;;12.37;7.67;;;;;;;;;;5106165;28;20201;-86
2022/10/14 10:48:08;;;;;;;12.23;7.93;;;;;;;;;;5100725;28;20282;-87
2022/10/14 10:50:41;;;;;;;13.70;8.13;;;;;;;;;;5122396;27;20223;-86
2022/10/14 10:53:17;;;;;;;8.23;5.63;;;;;;;;;;5104061;28;20209;-86
2022/10/14 10:55:52;;;;;;;9.80;6.57;;;;;;;;;;5108841;27;20284;-86
2022/10/14 10:58:34;;;;;;;12.33;7.10;;;;;;;;;;5102385;28;20305;-86
2022/10/14 11:01:10;;;;;;;9.17;5.90;;;;;;;;;;5097974;27;20261;-86
2022/10/14 11:03:50;;;;;;;8.17;5.83;;;;;;;;;;5103056;28;20241;-84
2022/10/14 11:12:11;;;;;;;17.17;11.27;;;;;;;;;;5069328;27;20225;-86
2022/10/14 11:14:46;;;;;;;6.90;4.90;;;;;;;;;;5104031;28;20217;-84
2022/10/14 11:17:18;;;;;;;11.20;8.30;;;;;;;;;;5106417;28;20201;-84
2022/10/14 11:19:53;;;;;;;12.83;7.40;;;;;;;;;;5103212;27;20201;-86
2022/10/14 11:22:38;;;;;;;9.83;5.43;;;;;;;;;;5104603;28;20301;-84
2022/10/14 11:25:20;;;;;;;14.30;9.60;;;;;;;;;;5100187;28;20213;-85
2022/10/14 11:27:53;;;;;;;11.40;7.20;;;;;;;;;;5102265;27;20211;-85
2022/10/14 11:30:24;;;;;;;12.10;8.43;;;;;;;;;;5108087;27;20288;-86
2022/10/14 11:33:16;;;;;;;14.37;8.97;;;;;;;;;;5105339;28;20202;-87
2022/10/14 11:35:51;;;;;;;11.70;8.33;;;;;;;;;;5106286;28;20203;-85
2022/10/14 11:38:36;;;;;;;12.10;8.70;;;;;;;;;;5102228;27;20189;-85
2022/10/14 11:41:09;;;;;;;10.40;6.43;;;;;;;;;;5094342;27;20232;-83
2022/10/14 11:43:42;;;;;;;9.73;7.47;;;;;;;;;;5083032;28;20279;-85
2022/10/14 11:46:14;;;;;;;11.27;7.40;;;;;;;;;;5097285;28;20310;-84
2022/10/14 11:48:46;;;;;;;4.20;3.33;;;;;;;;;;5100220;28;20235;-86
2022/10/14 11:51:37;;;;;;;9.50;6.80;;;;;;;;;;5083425;28;20222;-84
2022/10/14 11:54:11;;;;;;;8.43;6.20;;;;;;;;;;5084102;28;20324;-84
2022/10/14 11:56:44;;;;;;;7.70;6.30;;;;;;;;;;5100927;27;20231;-85
2022/10/14 11:59:26;;;;;;;8.33;5.43;;;;;;;;;;5083957;28;20225;-85
2022/10/14 12:02:00;;;;;;;7.43;5.93;;;;;;;;;;5084284;28;20309;-88
2022/10/14 12:04:34;;;;;;;8.10;6.30;;;;;;;;;;5081581;28;20229;-86
2022/10/14 12:07:09;;;;;;;8.33;4.87;;;;;;;;;;5081301;28;20225;-88
2022/10/14 12:09:43;;;;;;;6.27;5.10;;;;;;;;;;5083944;28;20238;-87
2022/10/14 12:12:16;;;;;;;2.90;2.63;;;;;;;;;;5086058;28;20231;-87
2022/10/14 12:14:48;;;;;;;1.27;1.10;;;;;;;;;;5083317;28;20223;-85
2022/10/14 12:17:24;;;;;;;3.10;2.77;;;;;;;;;;5077108;28;20231;-84
2022/10/14 12:19:54;;;;;;;3.03;2.73;;;;;;;;;;5084768;28;20300;-86
2022/10/14 12:22:26;;;;;;;4.80;4.17;;;;;;;;;;5081343;28;20223;-84
2022/10/14 12:24:55;;;;;;;4.50;3.30;;;;;;;;;;5096452;28;20282;-84
2022/10/14 12:27:27;;;;;;;1.50;1.37;;;;;;;;;;5083615;28;20220;-84
2022/10/14 12:30:01;;;;;;;0.50;0.50;;;;;;;;;;5079487;28;20231;-85
2022/10/14 12:32:31;;;;;;;4.20;3.80;;;;;;;;;;5080354;28;20289;-86
2022/10/14 12:35:02;;;;;;;2.00;1.70;;;;;;;;;;5082347;28;20232;-86
2022/10/14 12:37:49;;;;;;;6.20;3.30;;;;;;;;;;5082177;28;20228;-86
2022/10/14 12:40:36;;;;;;;2.37;2.17;;;;;;;;;;5084201;28;20321;-86
2022/10/14 12:43:22;;;;;;;1.47;1.37;;;;;;;;;;5080431;28;20239;-84
2022/10/14 12:46:29;;;;;;;2.27;2.10;;;;;;;;;;5086134;28;20212;-85
2022/10/14 12:49:18;;;;;;;3.17;2.27;;;;;;;;;;5088161;28;20219;-88
2022/10/14 12:51:55;;;;;;;1.57;1.47;;;;;;;;;;5096866;27;20219;-86
2022/10/14 12:54:41;;;;;;;2.30;2.10;;;;;;;;;;5085399;28;20258;-87
2022/10/14 12:57:25;;;;;;;3.63;2.37;;;;;;;;;;5100740;27;20215;-88
2022/10/14 13:00:19;;;;;;;1.23;1.10;;;;;;;;;;5079021;28;20235;-86
2022/10/14 13:02:58;;;;;;;1.00;0.90;;;;;;;;;;5083642;28;20217;-86
2022/10/14 13:05:35;;;;;;;4.37;2.70;;;;;;;;;;5077399;28;20235;-86
2022/10/14 13:08:12;;;;;;;3.23;1.53;;;;;;;;;;5075247;28;20304;-85
2022/10/14 13:10:44;;;;;;;2.03;1.27;;;;;;;;;;5079920;28;20221;-85
2022/10/14 13:13:33;;;;;;;1.73;1.53;;;;;;;;;;5077696;28;20224;-86
2022/10/14 13:16:03;;;;;;;0.83;0.83;;;;;;;;;;5094700;28;20318;-87
2022/10/14 13:18:41;;;;;;;5.53;1.10;;;;;;;;;;5078056;28;20277;-88
2022/10/14 13:21:11;;;;;;;1.20;1.10;;;;;;;;;;5076974;28;20229;-85
2022/10/14 13:23:42;;;;;;;11.03;7.13;;;;;;;;;;5079754;28;20278;-88
2022/10/14 13:26:28;;;;;;;0.80;0.80;;;;;;;;;;5078912;28;20220;-87
2022/10/14 13:29:11;;;;;;;1.50;1.10;;;;;;;;;;5078686;28;20223;-86
2022/10/14 13:31:55;;;;;;;1.17;1.10;;;;;;;;;;5078074;28;20217;-86
2022/10/14 13:34:55;;;;;;;2.60;1.67;;;;;;;;;;5077195;28;20224;-86
2022/10/14 13:37:36;;;;;;;11.30;0.70;;;;;;;;;;5077272;28;20233;-86
2022/10/14 13:40:21;;;;;;;1.37;1.27;;;;;;;;;;5094109;28;20263;-86
2022/10/14 13:42:51;;;;;;;3.10;2.00;;;;;;;;;;5078756;28;20310;-87
2022/10/14 13:45:35;;;;;;;2.93;1.17;;;;;;;;;;5076954;28;20219;-87
2022/10/14 13:48:14;;;;;;;1.30;1.20;;;;;;;;;;5075730;28;20227;-86
2022/10/14 13:50:48;;;;;;;2.03;1.27;;;;;;;;;;5097655;28;20233;-87
2022/10/14 13:53:19;;;;;;;1.13;1.03;;;;;;;;;;5081689;28;20220;-86
2022/10/14 13:55:51;;;;;;;3.80;1.80;;;;;;;;;;5077326;28;20270;-88
2022/10/14 13:58:22;;;;;;;1.83;1.33;;;;;;;;;;5080701;28;20224;-85
2022/10/14 14:01:01;;;;;;;1.03;0.93;;;;;;;;;;5077967;28;20220;-85
2022/10/14 14:03:36;;;;;;;1.70;0.90;;;;;;;;;;5080336;28;20215;-87
2022/10/14 14:06:11;;;;;;;1.27;1.17;;;;;;;;;;5097773;28;20229;-84
2022/10/14 14:08:46;;;;;;;3.10;2.90;;;;;;;;;;5079502;28;20215;-85
2022/10/14 14:11:19;;;;;;;0.90;0.90;;;;;;;;;;5092103;28;20304;-85
2022/10/14 14:13:50;;;;;;;1.47;0.97;;;;;;;;;;5081175;28;20268;-85
2022/10/14 14:16:30;;;;;;;0.77;0.77;;;;;;;;;;5082209;28;20305;-84
2022/10/14 14:19:02;;;;;;;0.70;0.70;;;;;;;;;;5085446;28;20217;-86
2022/10/14 14:21:37;;;;;;;1.70;1.67;;;;;;;;;;5082407;28;20220;-82
2022/10/14 14:24:14;;;;;;;0.43;0.43;;;;;;;;;;5084899;28;20209;-85
2022/10/14 14:26:43;;;;;;;2.53;1.92;;;;;;;;;;5083703;28;20526;-83
2022/10/14 14:29:15;;;;;;;1.43;1.27;;;;;;;;;;5084438;28;20254;-83
2022/10/14 14:31:46;;;;;;;5.63;2.47;;;;;;;;;;5082082;28;20229;-82
2022/10/14 14:34:36;;;;;;;2.60;1.67;;;;;;;;;;5083861;28;20306;-85
2022/10/14 14:37:06;;;;;;;1.10;1.00;;;;;;;;;;5102376;28;20247;-83
2022/10/14 14:39:59;;;;;;;1.97;1.23;;;;;;;;;;5078911;28;20250;-85
2022/10/14 14:42:32;;;;;;;0.77;0.77;;;;;;;;;;5077729;28;20255;-85
2022/10/14 14:45:05;;;;;;;1.67;1.40;;;;;;;;;;5101836;28;20216;-81
2022/10/14 14:47:35;;;;;;;1.20;1.10;;;;;;;;;;5079231;28;20236;-84
2022/10/14 14:50:04;;;;;;;1.70;1.43;;;;;;;;;;5080578;28;20227;-84
2022/10/14 14:52:52;;;;;;;3.47;1.33;;;;;;;;;;5082426;28;20223;-85
2022/10/14 14:55:34;;;;;;;1.33;1.30;;;;;;;;;;5080039;28;20212;-84
2022/10/14 14:58:04;;;;;;;0.50;0.50;;;;;;;;;;5075426;28;20225;-83
2022/10/14 15:00:33;;;;;;;0.70;0.70;;;;;;;;;;5081873;28;20224;-84
2022/10/14 15:03:07;;;;;;;2.77;1.50;;;;;;;;;;5098117;28;20213;-83
2022/10/14 15:05:35;;;;;;;1.60;1.03;;;;;;;;;;5081479;28;20270;-84
2022/10/14 15:08:06;;;;;;;0.80;0.80;;;;;;;;;;5078006;28;20225;-83
2022/10/14 15:10:35;;;;;;;2.07;1.47;;;;;;;;;;5080986;28;20249;-83
2022/10/14 15:13:03;;;;;;;1.70;1.20;;;;;;;;;;5078484;28;20224;-83